Time;durP1;ratioP1;P1;durP2;ratioP2;P2;SDS_P1;SDS_P2;PMS_P1;PMS_P2;Temp;Humidity;BMP_temperature;BMP_pressure;BME280_temperature;BME280_humidity;BME280_pressure;Samples;Min_cycle;Max_cycle;Signal;HPM_P1;HPM_P2
2021/03/05 00:00:17;;;;;;;1.70;0.20;;;5.50;99.90;;;;;;5083945;28;20200;-64
2021/03/05 00:02:43;;;;;;;1.73;0.20;;;5.60;99.90;;;;;;5092435;28;20184;-64
2021/03/05 00:05:10;;;;;;;2.10;0.30;;;5.50;99.90;;;;;;5074099;28;20200;-65
2021/03/05 00:07:36;;;;;;;1.70;0.20;;;5.60;99.90;;;;;;5094913;28;20187;-65
2021/03/05 00:10:06;;;;;;;1.90;0.50;;;5.70;99.90;;;;;;5103026;28;20169;-65
2021/03/05 00:12:32;;;;;;;2.75;1.02;;;5.70;99.90;;;;;;5101442;28;20599;-64
2021/03/05 00:14:58;;;;;;;1.80;0.20;;;5.60;99.90;;;;;;5078677;28;20223;-65
2021/03/05 00:17:24;;;;;;;2.08;0.68;;;5.60;99.90;;;;;;5091130;28;20256;-64
2021/03/05 00:19:49;;;;;;;1.90;0.70;;;5.60;99.90;;;;;;5085855;28;20200;-64
2021/03/05 00:22:15;;;;;;;3.50;1.30;;;5.50;99.90;;;;;;5091264;28;20209;-65
2021/03/05 00:24:41;;;;;;;2.70;1.50;;;5.50;99.90;;;;;;5074364;28;20184;-65
2021/03/05 00:27:06;;;;;;;1.70;0.20;;;5.50;99.90;;;;;;5096097;28;20172;-65
2021/03/05 00:29:32;;;;;;;1.70;0.20;;;5.50;99.90;;;;;;5073030;28;20179;-63
2021/03/05 00:31:58;;;;;;;1.70;0.20;;;5.50;99.90;;;;;;5091373;28;20539;-64
2021/03/05 00:34:24;;;;;;;1.70;0.20;;;5.60;99.90;;;;;;5084537;28;20205;-62
2021/03/05 00:36:50;;;;;;;1.70;0.20;;;5.60;99.90;;;;;;5092337;28;20251;-64
2021/03/05 00:39:16;;;;;;;1.70;0.20;;;5.70;99.90;;;;;;5087175;28;20264;-63
2021/03/05 00:41:41;;;;;;;1.73;0.30;;;5.70;99.90;;;;;;5090335;28;20573;-63
2021/03/05 00:44:08;;;;;;;1.70;0.20;;;5.70;99.90;;;;;;5094263;28;20201;-64
2021/03/05 00:46:33;;;;;;;2.22;0.50;;;5.70;99.90;;;;;;5099344;28;20188;-64
2021/03/05 00:48:59;;;;;;;1.70;0.20;;;5.70;99.90;;;;;;5107427;28;20202;-64
2021/03/05 00:51:25;;;;;;;2.20;1.03;;;5.70;99.90;;;;;;5111344;28;20635;-64
2021/03/05 00:53:52;;;;;;;2.00;0.88;;;5.60;99.90;;;;;;5111797;28;20204;-64
2021/03/05 00:56:18;;;;;;;2.60;0.95;;;5.50;99.90;;;;;;5109769;28;20191;-63
2021/03/05 00:58:44;;;;;;;1.98;0.75;;;5.50;99.90;;;;;;5085998;28;20203;-64
2021/03/05 01:01:10;;;;;;;1.80;0.50;;;5.50;99.90;;;;;;5089427;28;20180;-63
2021/03/05 01:03:36;;;;;;;1.70;0.20;;;5.50;99.90;;;;;;5091254;28;20207;-63
2021/03/05 01:06:02;;;;;;;2.40;0.93;;;5.50;99.90;;;;;;5080043;28;20792;-64
2021/03/05 01:08:28;;;;;;;3.28;2.17;;;5.50;99.90;;;;;;5085402;28;20430;-63
2021/03/05 01:10:53;;;;;;;1.70;0.20;;;5.50;99.90;;;;;;5074787;28;20183;-63
2021/03/05 01:13:19;;;;;;;1.70;0.20;;;5.60;99.90;;;;;;5085741;28;20227;-63
2021/03/05 01:15:45;;;;;;;1.80;0.40;;;5.60;99.90;;;;;;5071500;28;20192;-63
2021/03/05 01:18:11;;;;;;;1.70;0.20;;;5.50;99.90;;;;;;5089816;28;20188;-63
2021/03/05 01:20:37;;;;;;;1.70;0.20;;;5.50;99.90;;;;;;5091676;28;20590;-63
2021/03/05 01:23:03;;;;;;;1.70;0.30;;;5.60;99.90;;;;;;5091177;28;20183;-63
2021/03/05 01:25:31;;;;;;;2.20;0.85;;;5.60;99.90;;;;;;5078817;28;20187;-64
2021/03/05 01:27:58;;;;;;;2.33;0.95;;;5.60;99.90;;;;;;5085974;28;20222;-63
2021/03/05 01:30:24;;;;;;;2.10;0.35;;;5.50;99.90;;;;;;5086845;28;20187;-63
2021/03/05 01:32:50;;;;;;;3.15;1.00;;;5.50;99.90;;;;;;5057215;28;20180;-62
2021/03/05 01:35:23;;;;;;;1.80;0.20;;;5.50;99.90;;;;;;5089359;28;20214;-62
2021/03/05 01:37:49;;;;;;;1.80;0.60;;;5.50;99.90;;;;;;5086324;28;20245;-63
2021/03/05 01:40:19;;;;;;;1.80;0.40;;;5.50;99.90;;;;;;5093902;28;20264;-62
2021/03/05 01:42:45;;;;;;;1.70;0.20;;;5.40;99.90;;;;;;5082228;28;20562;-63
2021/03/05 01:45:13;;;;;;;1.70;0.30;;;5.30;99.90;;;;;;5088991;28;20203;-63
2021/03/05 01:47:40;;;;;;;1.70;0.20;;;5.30;99.90;;;;;;5090682;28;20172;-63
2021/03/05 01:50:17;;;;;;;2.55;0.63;;;5.30;99.90;;;;;;5090683;28;20191;-63
2021/03/05 01:52:56;;;;;;;1.77;0.30;;;5.40;99.90;;;;;;5087264;28;20184;-63
2021/03/05 01:55:21;;;;;;;1.70;0.20;;;5.40;99.90;;;;;;5073818;28;20717;-63
2021/03/05 01:57:47;;;;;;;1.70;0.20;;;5.40;99.90;;;;;;5087546;28;20317;-63
2021/03/05 02:00:18;;;;;;;2.13;1.13;;;5.40;99.90;;;;;;5090561;28;20203;-63
2021/03/05 02:02:44;;;;;;;1.70;0.20;;;5.50;99.90;;;;;;5088921;28;20635;-62
2021/03/05 02:05:10;;;;;;;1.70;0.20;;;5.40;99.90;;;;;;5076083;28;20211;-64
2021/03/05 02:07:36;;;;;;;1.90;0.35;;;5.50;99.90;;;;;;5074505;28;20186;-63
2021/03/05 02:10:01;;;;;;;2.07;0.90;;;5.60;99.90;;;;;;5092420;28;20192;-63
2021/03/05 02:12:27;;;;;;;1.90;0.73;;;5.60;99.90;;;;;;5086990;28;20195;-63
2021/03/05 02:14:53;;;;;;;1.70;0.20;;;5.50;99.90;;;;;;5089547;28;20261;-63
2021/03/05 02:17:26;;;;;;;1.70;0.20;;;5.50;99.90;;;;;;5090501;28;20180;-63
2021/03/05 02:20:16;;;;;;;1.80;0.30;;;5.50;99.90;;;;;;5099276;28;20275;-63
2021/03/05 02:23:11;;;;;;;2.28;1.25;;;5.50;99.90;;;;;;5102345;28;20208;-67
2021/03/05 02:26:10;;;;;;;1.70;0.30;;;5.60;99.90;;;;;;5093294;28;20294;-63
2021/03/05 02:28:41;;;;;;;1.73;0.20;;;5.70;99.90;;;;;;5092045;28;20187;-63
2021/03/05 02:31:18;;;;;;;1.73;0.20;;;5.70;99.90;;;;;;5073974;28;20176;-64
2021/03/05 02:33:56;;;;;;;1.73;0.20;;;5.70;99.90;;;;;;5091277;28;20239;-63
2021/03/05 02:36:44;;;;;;;1.90;0.82;;;5.80;99.90;;;;;;5094624;28;20183;-63
2021/03/05 02:39:51;;;;;;;1.80;0.30;;;5.80;99.90;;;;;;5092381;28;20257;-64
2021/03/05 02:42:30;;;;;;;1.73;0.20;;;5.80;99.90;;;;;;5022657;28;20647;-63
2021/03/05 02:44:59;;;;;;;3.55;1.20;;;5.80;99.90;;;;;;5090733;28;20206;-63
2021/03/05 02:47:25;;;;;;;1.70;0.20;;;5.70;99.90;;;;;;5094077;28;20241;-63
2021/03/05 02:49:53;;;;;;;3.97;1.15;;;5.70;99.90;;;;;;5086600;28;20188;-63
2021/03/05 02:52:20;;;;;;;2.42;0.85;;;5.70;99.90;;;;;;5089641;28;20233;-63
2021/03/05 02:54:55;;;;;;;1.70;0.20;;;5.70;99.90;;;;;;5075176;28;508905;-64
2021/03/05 02:57:26;;;;;;;1.70;0.20;;;5.70;99.90;;;;;;5093221;28;20194;-63
2021/03/05 02:59:52;;;;;;;1.70;0.20;;;5.70;99.90;;;;;;5095543;28;20204;-64
2021/03/05 03:02:26;;;;;;;1.70;0.20;;;5.80;99.90;;;;;;5097253;28;20653;-64
2021/03/05 03:04:55;;;;;;;1.70;0.20;;;5.80;99.90;;;;;;5098753;28;20218;-64
2021/03/05 03:07:21;;;;;;;2.55;0.88;;;5.90;99.90;;;;;;5101306;28;20180;-63
2021/03/05 03:09:47;;;;;;;2.37;0.70;;;5.70;99.90;;;;;;5098579;28;20329;-64
2021/03/05 03:12:15;;;;;;;2.10;0.68;;;5.60;99.90;;;;;;5096359;28;20443;-64
2021/03/05 03:14:42;;;;;;;1.90;0.77;;;5.60;99.90;;;;;;5104135;28;20238;-64
2021/03/05 03:17:09;;;;;;;1.70;0.20;;;5.50;99.90;;;;;;5105802;28;20203;-64
2021/03/05 03:19:37;;;;;;;1.70;0.20;;;5.50;99.90;;;;;;5099125;28;20213;-64
2021/03/05 03:22:03;;;;;;;1.75;0.28;;;5.40;99.90;;;;;;5098724;28;20169;-64
2021/03/05 03:24:31;;;;;;;1.70;0.20;;;5.50;99.90;;;;;;5094741;28;20204;-64
2021/03/05 03:26:57;;;;;;;1.70;0.20;;;5.50;99.90;;;;;;5089423;28;20177;-63
2021/03/05 03:29:23;;;;;;;2.50;0.60;;;5.60;99.90;;;;;;5091824;28;20629;-63
2021/03/05 03:31:48;;;;;;;1.80;0.30;;;5.50;99.90;;;;;;5091410;28;20206;-62
2021/03/05 03:34:14;;;;;;;1.70;0.20;;;5.40;99.90;;;;;;5090852;28;20212;-63
2021/03/05 03:36:41;;;;;;;1.90;0.83;;;5.50;99.90;;;;;;5092379;28;20597;-63
2021/03/05 03:39:09;;;;;;;2.13;0.60;;;5.40;99.90;;;;;;5081771;28;20208;-63
2021/03/05 03:41:38;;;;;;;1.73;0.20;;;5.50;99.90;;;;;;5112168;22;20228;-60
2021/03/05 03:44:11;;;;;;;1.75;0.20;;;5.50;99.90;;;;;;5068842;28;20255;-60
2021/03/05 03:46:42;;;;;;;3.55;1.60;;;5.50;99.90;;;;;;5065384;28;20196;-59
2021/03/05 03:49:37;;;;;;;1.70;0.20;;;5.50;99.90;;;;;;5068540;28;20192;-60
2021/03/05 03:52:08;;;;;;;2.50;1.63;;;5.50;99.90;;;;;;5058960;28;20213;-59
2021/03/05 03:54:36;;;;;;;1.70;0.20;;;5.50;99.90;;;;;;5065010;28;20191;-60
2021/03/05 03:57:03;;;;;;;2.05;0.82;;;5.50;99.90;;;;;;5068573;28;20187;-60
2021/03/05 03:59:31;;;;;;;2.90;1.10;;;5.50;99.90;;;;;;5071853;28;20299;-59
2021/03/05 04:01:58;;;;;;;1.73;0.20;;;5.50;99.90;;;;;;5068108;28;20200;-60
2021/03/05 04:04:26;;;;;;;2.55;1.13;;;5.60;99.90;;;;;;5073493;28;20226;-59
2021/03/05 04:06:52;;;;;;;3.45;1.58;;;5.50;99.90;;;;;;5068365;28;20176;-60
2021/03/05 04:09:19;;;;;;;1.70;0.30;;;5.60;99.90;;;;;;5060877;28;20193;-60
2021/03/05 04:11:44;;;;;;;3.80;3.08;;;5.60;99.90;;;;;;5071668;28;20295;-59
2021/03/05 04:14:10;;;;;;;1.70;0.20;;;5.50;99.90;;;;;;5069434;28;20266;-60
2021/03/05 04:16:36;;;;;;;1.73;0.30;;;5.50;99.90;;;;;;5069694;28;20600;-60
2021/03/05 04:19:03;;;;;;;2.53;1.23;;;5.50;99.90;;;;;;5078480;28;20208;-60
2021/03/05 04:21:34;;;;;;;1.70;0.20;;;5.50;99.90;;;;;;5087272;28;20204;-60
2021/03/05 04:24:00;;;;;;;2.45;1.15;;;5.50;99.90;;;;;;5092339;28;20177;-60
2021/03/05 04:26:25;;;;;;;1.70;0.20;;;5.60;99.90;;;;;;5091458;28;20196;-60
2021/03/05 04:28:51;;;;;;;1.70;0.20;;;5.60;99.90;;;;;;5089905;28;20177;-60
2021/03/05 04:31:16;;;;;;;1.70;0.20;;;5.60;99.90;;;;;;5089086;28;20255;-62
2021/03/05 04:33:42;;;;;;;2.43;0.87;;;5.50;99.90;;;;;;5076827;28;20181;-59
2021/03/05 04:36:07;;;;;;;1.70;0.20;;;5.60;99.90;;;;;;5070924;28;20555;-59
2021/03/05 04:38:33;;;;;;;2.37;0.60;;;5.60;99.90;;;;;;5068091;28;20185;-59
2021/03/05 04:40:59;;;;;;;2.93;1.23;;;5.60;99.90;;;;;;5070315;28;20204;-60
2021/03/05 04:43:25;;;;;;;1.70;0.20;;;5.50;99.90;;;;;;5068790;28;20910;-59
2021/03/05 04:45:50;;;;;;;1.70;0.20;;;5.50;99.90;;;;;;5071299;28;20176;-59
2021/03/05 04:48:16;;;;;;;1.73;0.30;;;5.50;99.90;;;;;;5069463;28;20464;-59
2021/03/05 04:50:42;;;;;;;1.80;0.40;;;5.50;99.90;;;;;;5066604;28;20211;-59
2021/03/05 04:53:07;;;;;;;1.70;0.20;;;5.40;99.90;;;;;;5071140;28;20452;-59
2021/03/05 04:55:33;;;;;;;1.70;0.20;;;5.40;99.90;;;;;;5069877;28;20184;-60
2021/03/05 04:57:59;;;;;;;1.90;0.77;;;5.40;99.90;;;;;;5065998;28;20272;-59
2021/03/05 05:00:25;;;;;;;1.70;0.20;;;5.40;99.90;;;;;;5070721;28;20220;-59
2021/03/05 05:02:51;;;;;;;1.80;0.30;;;5.40;99.90;;;;;;5069681;28;20210;-59
2021/03/05 05:05:17;;;;;;;1.70;0.20;;;5.40;99.90;;;;;;5069433;28;20180;-60
2021/03/05 05:07:42;;;;;;;1.70;0.20;;;5.40;99.90;;;;;;5070891;28;20180;-59
2021/03/05 05:10:09;;;;;;;1.70;0.20;;;5.40;99.90;;;;;;5071130;28;20191;-59
2021/03/05 05:12:35;;;;;;;1.67;0.20;;;5.50;99.90;;;;;;5067804;28;20986;-59
2021/03/05 05:15:01;;;;;;;1.77;0.27;;;5.50;99.90;;;;;;5070847;28;20189;-59
2021/03/05 05:17:26;;;;;;;1.70;0.20;;;5.50;99.90;;;;;;5066262;28;20207;-59
2021/03/05 05:19:54;;;;;;;1.80;0.40;;;5.50;99.90;;;;;;5069269;28;20209;-59
2021/03/05 05:22:20;;;;;;;1.70;0.20;;;5.50;99.90;;;;;;5070135;28;20699;-59
2021/03/05 05:24:45;;;;;;;1.70;0.20;;;5.50;99.90;;;;;;5073990;28;20180;-59
2021/03/05 05:27:11;;;;;;;1.70;0.20;;;5.50;99.90;;;;;;5074606;28;20207;-59
2021/03/05 05:29:37;;;;;;;1.70;0.20;;;5.40;99.90;;;;;;5079750;28;20185;-59
2021/03/05 05:32:02;;;;;;;1.70;0.20;;;5.40;99.90;;;;;;5072901;28;20215;-59
2021/03/05 05:34:28;;;;;;;1.70;0.20;;;5.40;99.90;;;;;;5075476;28;20189;-59
2021/03/05 05:36:54;;;;;;;1.70;0.30;;;5.40;99.90;;;;;;5073019;28;20496;-59
2021/03/05 05:39:19;;;;;;;1.70;0.20;;;5.40;99.90;;;;;;5057350;28;20204;-59
2021/03/05 05:41:45;;;;;;;2.63;1.40;;;5.40;99.90;;;;;;5073187;28;20231;-59
2021/03/05 05:44:11;;;;;;;1.70;0.20;;;5.40;99.90;;;;;;5072689;28;20204;-59
2021/03/05 05:46:39;;;;;;;1.70;0.20;;;5.30;99.90;;;;;;5071412;28;20232;-59
2021/03/05 05:49:05;;;;;;;1.73;0.20;;;5.40;99.90;;;;;;5074802;28;20184;-59
2021/03/05 05:51:35;;;;;;;1.70;0.20;;;5.40;99.90;;;;;;5071850;28;20200;-60
2021/03/05 05:54:08;;;;;;;1.70;0.20;;;5.40;99.90;;;;;;5072981;28;20177;-59
2021/03/05 05:56:39;;;;;;;1.70;0.30;;;5.30;99.90;;;;;;5074840;28;20196;-59
2021/03/05 05:59:04;;;;;;;1.73;0.30;;;5.40;99.90;;;;;;5068251;28;20239;-59
2021/03/05 06:01:34;;;;;;;1.80;0.33;;;5.40;99.90;;;;;;5071762;28;20675;-60
2021/03/05 06:04:04;;;;;;;1.73;0.20;;;5.30;99.90;;;;;;5072930;28;20177;-59
2021/03/05 06:06:31;;;;;;;1.90;0.50;;;5.30;99.90;;;;;;5071247;28;20659;-59
2021/03/05 06:09:01;;;;;;;1.70;0.20;;;5.30;99.90;;;;;;5072438;28;20180;-60
2021/03/05 06:11:41;;;;;;;4.97;2.25;;;5.30;99.90;;;;;;5073422;28;20207;-59
2021/03/05 06:14:08;;;;;;;1.70;0.20;;;5.30;99.90;;;;;;5068091;28;20196;-59
2021/03/05 06:16:35;;;;;;;1.70;0.20;;;5.20;99.90;;;;;;5071965;28;20680;-59
2021/03/05 06:19:16;;;;;;;1.90;0.63;;;5.30;99.90;;;;;;5073969;28;20262;-59
2021/03/05 06:21:41;;;;;;;1.90;0.63;;;5.30;99.90;;;;;;5072503;28;20200;-59
2021/03/05 06:24:09;;;;;;;1.70;0.40;;;5.20;99.90;;;;;;5070853;28;20242;-59
2021/03/05 06:26:55;;;;;;;1.70;0.20;;;5.20;99.90;;;;;;5074941;28;20185;-59
2021/03/05 06:29:43;;;;;;;1.70;0.20;;;5.20;99.90;;;;;;5069135;28;20185;-59
2021/03/05 06:32:11;;;;;;;2.00;0.68;;;5.30;99.90;;;;;;5069236;28;20217;-60
2021/03/05 06:34:54;;;;;;;1.90;0.40;;;5.40;99.90;;;;;;5073097;28;20188;-60
2021/03/05 06:37:24;;;;;;;1.70;0.20;;;5.30;99.90;;;;;;5069789;28;20192;-59
2021/03/05 06:40:05;;;;;;;1.70;0.20;;;5.30;99.90;;;;;;5071636;28;20529;-59
2021/03/05 06:42:56;;;;;;;1.70;0.30;;;5.30;99.90;;;;;;5069542;28;20200;-59
2021/03/05 06:45:35;;;;;;;1.70;0.30;;;5.30;99.90;;;;;;5071424;28;20181;-59
2021/03/05 06:48:08;;;;;;;1.70;0.20;;;5.40;99.90;;;;;;5074601;28;20192;-60
2021/03/05 06:50:38;;;;;;;2.70;0.88;;;5.50;99.90;;;;;;5079727;28;20189;-60
2021/03/05 06:53:20;;;;;;;1.70;0.20;;;5.50;99.90;;;;;;5083565;28;20196;-59
2021/03/05 06:55:46;;;;;;;1.70;0.20;;;5.50;99.90;;;;;;5085572;28;20706;-60
2021/03/05 06:58:12;;;;;;;1.70;0.20;;;5.50;99.90;;;;;;5076829;28;20185;-59
2021/03/05 07:00:38;;;;;;;1.70;0.20;;;5.50;99.90;;;;;;5074307;28;20247;-60
2021/03/05 07:03:20;;;;;;;1.70;0.20;;;5.40;99.90;;;;;;5068274;28;20275;-60
2021/03/05 07:05:52;;;;;;;2.20;0.82;;;5.50;99.90;;;;;;5072152;28;20431;-60
2021/03/05 07:08:38;;;;;;;1.70;0.20;;;5.50;99.90;;;;;;5071375;28;20212;-60
2021/03/05 07:11:07;;;;;;;2.78;0.98;;;5.60;99.90;;;;;;5072805;28;20227;-59
2021/03/05 07:13:52;;;;;;;2.17;0.50;;;5.60;99.90;;;;;;5068669;28;20268;-59
2021/03/05 07:16:19;;;;;;;3.75;2.10;;;5.50;99.90;;;;;;5070160;28;20212;-60
2021/03/05 07:18:45;;;;;;;1.77;0.20;;;5.60;99.90;;;;;;5075807;28;20177;-59
2021/03/05 07:21:14;;;;;;;1.73;0.20;;;5.60;99.90;;;;;;5072225;28;20204;-59
2021/03/05 07:23:44;;;;;;;1.73;0.20;;;5.60;99.90;;;;;;5073720;28;20234;-59
2021/03/05 07:26:10;;;;;;;1.70;0.20;;;5.60;99.90;;;;;;5077169;28;20172;-60
2021/03/05 07:28:40;;;;;;;1.90;0.85;;;5.60;99.90;;;;;;5070401;28;20311;-60
2021/03/05 07:31:07;;;;;;;1.70;0.20;;;5.60;99.90;;;;;;5072794;28;20677;-60
2021/03/05 07:33:39;;;;;;;1.73;0.20;;;5.60;99.90;;;;;;5074367;28;20264;-60
2021/03/05 07:36:09;;;;;;;1.70;0.20;;;5.70;99.90;;;;;;5068331;28;20530;-60
2021/03/05 07:38:39;;;;;;;3.53;1.73;;;5.70;99.90;;;;;;5069950;28;20655;-59
2021/03/05 07:41:06;;;;;;;1.70;0.30;;;5.60;99.90;;;;;;5069656;28;20212;-59
2021/03/05 07:43:33;;;;;;;1.85;0.75;;;5.60;99.90;;;;;;5068180;28;20177;-59
2021/03/05 07:46:00;;;;;;;2.10;0.88;;;5.60;99.90;;;;;;5053256;28;20193;-60
2021/03/05 07:48:26;;;;;;;1.70;0.20;;;5.60;99.90;;;;;;5058558;28;20668;-60
2021/03/05 07:50:58;;;;;;;1.70;0.20;;;5.60;99.90;;;;;;5065075;28;20262;-59
2021/03/05 07:53:23;;;;;;;3.17;1.65;;;5.70;99.90;;;;;;5063965;28;20214;-59
2021/03/05 07:55:49;;;;;;;1.70;0.20;;;5.60;99.90;;;;;;5066597;28;20662;-59
2021/03/05 07:58:46;;;;;;;1.70;0.20;;;5.60;99.90;;;;;;5067249;28;20188;-60
2021/03/05 08:01:11;;;;;;;2.25;1.08;;;5.70;99.90;;;;;;5071197;28;20210;-60
2021/03/05 08:03:54;;;;;;;2.33;0.97;;;5.70;99.90;;;;;;5070025;28;20197;-59
2021/03/05 08:06:29;;;;;;;1.73;0.20;;;5.60;99.90;;;;;;5064058;28;20639;-60
2021/03/05 08:09:07;;;;;;;1.70;0.20;;;5.70;99.90;;;;;;5074599;28;20288;-59
2021/03/05 08:11:36;;;;;;;5.50;2.30;;;5.70;99.90;;;;;;5067607;28;20212;-60
2021/03/05 08:14:22;;;;;;;1.70;0.20;;;5.60;99.90;;;;;;5069238;28;20181;-59
2021/03/05 08:16:51;;;;;;;1.70;0.20;;;5.60;99.90;;;;;;5070319;28;20647;-59
2021/03/05 08:19:17;;;;;;;1.90;0.73;;;5.80;99.90;;;;;;5071097;28;20231;-60
2021/03/05 08:21:56;;;;;;;1.70;0.20;;;5.80;99.90;;;;;;5065641;28;20244;-60
2021/03/05 08:24:26;;;;;;;1.70;0.20;;;5.90;99.90;;;;;;5069098;28;20169;-60
2021/03/05 08:27:07;;;;;;;2.70;0.98;;;5.90;99.90;;;;;;5072655;28;20184;-60
2021/03/05 08:30:05;;;;;;;1.77;0.20;;;5.90;99.90;;;;;;5050687;28;20677;-59
2021/03/05 08:32:33;;;;;;;2.10;0.57;;;5.80;99.90;;;;;;5069376;28;20698;-59
2021/03/05 08:35:05;;;;;;;3.33;1.42;;;5.80;99.90;;;;;;5073080;28;20285;-60
2021/03/05 08:37:38;;;;;;;2.35;0.73;;;5.70;99.90;;;;;;5069921;28;20181;-60
2021/03/05 08:40:10;;;;;;;2.00;0.45;;;5.70;99.90;;;;;;5069302;28;20201;-60
2021/03/05 08:42:49;;;;;;;7.05;2.42;;;5.60;99.90;;;;;;5072078;28;20204;-60
2021/03/05 08:45:16;;;;;;;7.38;3.28;;;5.70;99.90;;;;;;5065250;28;20176;-60
2021/03/05 08:47:45;;;;;;;1.70;0.20;;;5.80;99.90;;;;;;5074663;28;20188;-60
2021/03/05 08:50:13;;;;;;;3.17;1.50;;;5.80;99.90;;;;;;5069296;28;20630;-60
2021/03/05 08:52:46;;;;;;;3.55;1.85;;;5.70;99.90;;;;;;5068405;28;20208;-59
2021/03/05 08:55:14;;;;;;;4.72;1.90;;;5.80;99.90;;;;;;5068045;28;20182;-59
2021/03/05 08:57:42;;;;;;;2.30;0.75;;;5.70;99.90;;;;;;5072923;28;20188;-60
2021/03/05 09:00:12;;;;;;;2.22;1.23;;;5.80;99.90;;;;;;5063261;28;20636;-60
2021/03/05 09:02:37;;;;;;;1.90;0.30;;;5.80;99.90;;;;;;5076966;28;20275;-60
2021/03/05 09:05:03;;;;;;;1.80;0.50;;;5.90;99.90;;;;;;5076667;28;20275;-60
2021/03/05 09:07:29;;;;;;;1.70;0.20;;;5.70;99.90;;;;;;5074560;28;20272;-60
2021/03/05 09:09:55;;;;;;;1.85;0.47;;;5.80;99.90;;;;;;5076396;28;20801;-61
2021/03/05 09:12:25;;;;;;;1.70;0.20;;;5.80;99.90;;;;;;5077836;28;20207;-60
2021/03/05 09:15:03;;;;;;;1.70;0.20;;;5.80;99.90;;;;;;5076408;28;20219;-59
2021/03/05 09:17:29;;;;;;;1.80;0.20;;;5.90;99.90;;;;;;5075109;28;20184;-59
2021/03/05 09:19:54;;;;;;;5.10;3.80;;;6.00;99.90;;;;;;5075929;28;20284;-59
2021/03/05 09:22:21;;;;;;;1.70;0.20;;;6.00;99.90;;;;;;5075374;28;20204;-60
2021/03/05 09:24:57;;;;;;;3.33;1.95;;;6.00;99.90;;;;;;5077797;28;20189;-60
2021/03/05 09:27:28;;;;;;;1.70;0.20;;;5.90;99.90;;;;;;5076841;28;20251;-60
2021/03/05 09:29:55;;;;;;;5.32;2.53;;;5.90;99.90;;;;;;5078105;28;20202;-60
2021/03/05 09:32:21;;;;;;;1.70;0.20;;;5.90;99.90;;;;;;5079441;28;20567;-60
2021/03/05 09:34:52;;;;;;;4.93;2.15;;;5.80;99.90;;;;;;5075606;28;20600;-60
2021/03/05 09:37:22;;;;;;;2.53;1.85;;;5.90;99.90;;;;;;5075886;28;20612;-60
2021/03/05 09:39:50;;;;;;;1.70;0.20;;;5.90;99.90;;;;;;5073922;28;20319;-60
2021/03/05 09:42:15;;;;;;;1.90;0.77;;;6.00;99.90;;;;;;5073353;28;20580;-60
2021/03/05 09:44:45;;;;;;;1.70;0.20;;;6.20;99.90;;;;;;5069455;28;20176;-60
2021/03/05 09:47:11;;;;;;;1.80;0.43;;;6.20;99.90;;;;;;5073082;28;20439;-60
2021/03/05 09:49:37;;;;;;;1.70;0.20;;;6.30;99.90;;;;;;5065823;28;20229;-60
2021/03/05 09:52:03;;;;;;;5.03;2.87;;;6.30;99.90;;;;;;5076092;28;20549;-59
2021/03/05 09:54:42;;;;;;;6.20;2.47;;;6.30;99.90;;;;;;5075158;28;20184;-59
2021/03/05 09:57:11;;;;;;;1.80;0.60;;;6.30;99.90;;;;;;5072305;28;20184;-59
2021/03/05 09:59:48;;;;;;;1.77;0.40;;;6.30;99.90;;;;;;5074067;28;20525;-60
2021/03/05 10:02:19;;;;;;;1.70;0.20;;;6.30;99.90;;;;;;5068638;28;20234;-60
2021/03/05 10:04:46;;;;;;;1.70;0.45;;;6.30;99.90;;;;;;5074388;28;20682;-60
2021/03/05 10:07:11;;;;;;;2.95;1.67;;;6.20;99.90;;;;;;5075945;28;20189;-60
2021/03/05 10:09:37;;;;;;;1.80;0.67;;;6.20;99.90;;;;;;5074398;28;20195;-60
2021/03/05 10:12:03;;;;;;;1.70;0.30;;;6.20;99.90;;;;;;5070797;28;20223;-60
2021/03/05 10:14:32;;;;;;;2.90;1.27;;;6.30;99.90;;;;;;5072095;28;20188;-59
2021/03/05 10:17:15;;;;;;;3.03;0.95;;;6.30;99.90;;;;;;5072824;28;20241;-60
2021/03/05 10:19:42;;;;;;;2.03;0.80;;;6.40;99.90;;;;;;5072680;28;20970;-60
2021/03/05 10:22:09;;;;;;;2.92;1.65;;;6.40;99.90;;;;;;5066969;28;20268;-60
2021/03/05 10:24:35;;;;;;;3.67;1.08;;;6.40;99.90;;;;;;5074929;28;20663;-62
2021/03/05 10:27:21;;;;;;;1.70;0.20;;;6.40;99.90;;;;;;5073614;28;20177;-59
2021/03/05 10:29:49;;;;;;;2.75;1.00;;;6.40;99.90;;;;;;5072345;28;20208;-59
2021/03/05 10:32:19;;;;;;;2.17;1.48;;;6.50;99.90;;;;;;5073566;28;20200;-60
2021/03/05 10:34:46;;;;;;;7.10;2.75;;;6.50;99.90;;;;;;5081113;28;20286;-60
2021/03/05 10:37:12;;;;;;;1.65;0.20;;;6.40;99.90;;;;;;5070131;28;20203;-60
2021/03/05 10:39:38;;;;;;;1.65;0.20;;;6.50;99.90;;;;;;5073185;28;20207;-60
2021/03/05 10:42:05;;;;;;;3.63;0.83;;;6.50;99.90;;;;;;5078808;28;20595;-60
2021/03/05 10:44:32;;;;;;;1.70;0.20;;;6.60;99.90;;;;;;5073441;28;20191;-58
2021/03/05 10:46:59;;;;;;;1.63;0.20;;;6.60;99.90;;;;;;5072174;28;20206;-58
2021/03/05 10:49:26;;;;;;;1.60;0.20;;;6.50;99.90;;;;;;5068984;28;20208;-58
2021/03/05 10:51:52;;;;;;;2.65;1.65;;;6.60;99.90;;;;;;5066473;28;20291;-59
2021/03/05 10:54:17;;;;;;;3.93;1.90;;;6.60;99.90;;;;;;5073728;28;20591;-59
2021/03/05 10:56:43;;;;;;;1.63;0.27;;;6.60;99.90;;;;;;5068461;28;20417;-59
2021/03/05 10:59:11;;;;;;;3.40;2.10;;;6.50;99.90;;;;;;5070166;28;20212;-59
2021/03/05 11:01:37;;;;;;;1.60;0.20;;;6.40;99.90;;;;;;5069365;28;20201;-59
2021/03/05 11:04:02;;;;;;;2.40;0.70;;;6.40;99.90;;;;;;5078370;28;20173;-59
2021/03/05 11:06:28;;;;;;;2.53;1.27;;;6.50;99.90;;;;;;5084521;28;21044;-60
2021/03/05 11:08:53;;;;;;;1.90;0.70;;;6.40;99.90;;;;;;5078516;28;20177;-63
2021/03/05 11:11:19;;;;;;;1.70;0.40;;;6.40;99.90;;;;;;5087616;28;20219;-59
2021/03/05 11:13:45;;;;;;;1.60;0.20;;;6.40;99.90;;;;;;5086918;28;20195;-59
2021/03/05 11:16:10;;;;;;;1.90;0.50;;;6.50;99.90;;;;;;5074230;28;20189;-58
2021/03/05 11:18:36;;;;;;;1.60;0.20;;;6.50;99.90;;;;;;5076266;28;20202;-59
2021/03/05 11:21:01;;;;;;;1.60;0.20;;;6.50;99.90;;;;;;5073911;28;20212;-59
2021/03/05 11:23:27;;;;;;;1.90;0.37;;;6.50;99.90;;;;;;5074327;28;20195;-58
2021/03/05 11:25:52;;;;;;;2.17;0.70;;;6.60;99.90;;;;;;5069919;28;20659;-58
2021/03/05 11:28:18;;;;;;;2.30;1.30;;;6.50;99.90;;;;;;5073513;28;20176;-59
2021/03/05 11:30:44;;;;;;;7.87;1.20;;;6.60;99.90;;;;;;5071427;28;20224;-59
2021/03/05 11:33:11;;;;;;;1.60;0.20;;;6.80;99.90;;;;;;5071847;28;20263;-59
2021/03/05 11:35:37;;;;;;;6.43;3.33;;;6.90;99.90;;;;;;5074171;28;20260;-59
2021/03/05 11:38:03;;;;;;;2.40;0.65;;;7.00;99.90;;;;;;5074763;28;20219;-58
2021/03/05 11:40:29;;;;;;;1.60;0.20;;;7.10;99.90;;;;;;5055699;28;20209;-59
2021/03/05 11:42:54;;;;;;;2.37;0.80;;;7.20;99.90;;;;;;5070504;28;20454;-58
2021/03/05 11:45:20;;;;;;;2.00;0.77;;;7.20;99.90;;;;;;5070535;28;20180;-60
2021/03/05 11:47:45;;;;;;;4.27;1.67;;;7.20;99.90;;;;;;5069141;28;20208;-59
2021/03/05 11:50:12;;;;;;;1.60;0.30;;;7.30;99.90;;;;;;5068392;28;20684;-59
2021/03/05 11:52:38;;;;;;;1.80;0.60;;;7.20;99.90;;;;;;5069215;28;20204;-59
2021/03/05 11:55:05;;;;;;;1.60;0.20;;;7.20;99.90;;;;;;5072425;28;20439;-59
2021/03/05 11:57:30;;;;;;;2.85;1.20;;;7.30;99.90;;;;;;5068807;28;20195;-58
2021/03/05 11:59:56;;;;;;;1.80;0.30;;;7.30;99.90;;;;;;5066999;28;20208;-58
2021/03/05 12:02:21;;;;;;;3.37;0.67;;;7.20;99.90;;;;;;5071243;28;20277;-59
2021/03/05 12:04:47;;;;;;;3.93;2.10;;;7.00;99.90;;;;;;5069591;28;20180;-59
2021/03/05 12:07:13;;;;;;;1.60;0.20;;;7.00;99.90;;;;;;5069022;28;20180;-59
2021/03/05 12:09:38;;;;;;;1.60;0.20;;;7.10;99.90;;;;;;5071132;28;20219;-59
2021/03/05 12:12:05;;;;;;;8.83;2.47;;;7.10;99.90;;;;;;5065996;28;20223;-59
2021/03/05 12:14:30;;;;;;;1.63;0.20;;;7.00;99.90;;;;;;5069375;28;20263;-58
2021/03/05 12:16:56;;;;;;;1.60;0.20;;;7.10;99.90;;;;;;5059657;28;20280;-58
2021/03/05 12:19:22;;;;;;;1.63;0.20;;;7.10;99.90;;;;;;5067628;28;20566;-58
2021/03/05 12:21:49;;;;;;;1.60;0.20;;;7.20;99.90;;;;;;5070935;28;20278;-58
2021/03/05 12:24:14;;;;;;;4.90;1.77;;;7.30;99.90;;;;;;5067788;28;20177;-58
2021/03/05 12:26:40;;;;;;;2.03;0.60;;;7.30;99.90;;;;;;5065907;28;20181;-58
2021/03/05 12:29:06;;;;;;;1.80;0.47;;;7.40;99.90;;;;;;5070878;28;20199;-58
2021/03/05 12:31:31;;;;;;;2.53;1.23;;;7.40;99.90;;;;;;5067622;28;20201;-58
2021/03/05 12:33:57;;;;;;;1.70;0.50;;;7.40;99.90;;;;;;5050099;28;20177;-58
2021/03/05 12:36:23;;;;;;;1.60;0.20;;;7.30;99.90;;;;;;5069610;28;20481;-58
2021/03/05 12:38:49;;;;;;;3.13;1.07;;;7.30;99.90;;;;;;5071267;28;20447;-59
2021/03/05 12:41:14;;;;;;;4.17;2.40;;;7.30;99.90;;;;;;5068957;28;20523;-58
2021/03/05 12:43:40;;;;;;;2.10;0.73;;;7.30;99.90;;;;;;5068374;28;20329;-59
2021/03/05 12:46:08;;;;;;;5.27;2.30;;;7.30;99.90;;;;;;5066504;28;20516;-59
2021/03/05 12:48:33;;;;;;;2.87;1.77;;;7.30;99.90;;;;;;5067879;28;20210;-59
2021/03/05 12:50:59;;;;;;;1.70;0.40;;;7.40;99.90;;;;;;5070859;28;20470;-58
2021/03/05 12:53:24;;;;;;;2.60;1.70;;;7.40;99.90;;;;;;5069969;28;20288;-58
2021/03/05 12:55:50;;;;;;;1.90;0.73;;;7.40;99.90;;;;;;5067241;28;20528;-59
2021/03/05 12:58:16;;;;;;;3.37;1.57;;;7.40;99.90;;;;;;5064835;28;20648;-59
2021/03/05 13:00:45;;;;;;;1.77;0.50;;;7.40;99.90;;;;;;5070221;28;20204;-60
2021/03/05 13:03:10;;;;;;;3.72;0.63;;;7.30;99.90;;;;;;5072133;28;20443;-58
2021/03/05 13:05:36;;;;;;;1.90;0.60;;;7.40;99.90;;;;;;5067480;28;20183;-58